sensor_id;sensor_type;location;lat;lon;timestamp;temperature;humidity
52273;DHT22;38227;50.942;4.016;2022-12-24T00:00:54;11.80;99.90
52273;DHT22;38227;50.942;4.016;2022-12-24T00:03:23;11.80;99.90
52273;DHT22;38227;50.942;4.016;2022-12-24T00:05:51;11.80;99.90
52273;DHT22;38227;50.942;4.016;2022-12-24T00:08:31;11.90;99.90
52273;DHT22;38227;50.942;4.016;2022-12-24T00:11:01;12.00;99.90
52273;DHT22;38227;50.942;4.016;2022-12-24T00:13:29;12.00;99.90
52273;DHT22;38227;50.942;4.016;2022-12-24T00:16:01;12.00;99.90
52273;DHT22;38227;50.942;4.016;2022-12-24T00:18:30;12.10;99.90
52273;DHT22;38227;50.942;4.016;2022-12-24T00:21:02;12.20;99.90
52273;DHT22;38227;50.942;4.016;2022-12-24T00:23:31;12.20;99.90
52273;DHT22;38227;50.942;4.016;2022-12-24T00:26:03;12.30;99.90
52273;DHT22;38227;50.942;4.016;2022-12-24T00:28:32;12.30;99.90
52273;DHT22;38227;50.942;4.016;2022-12-24T00:31:13;12.20;99.90
52273;DHT22;38227;50.942;4.016;2022-12-24T00:33:42;12.20;99.90
52273;DHT22;38227;50.942;4.016;2022-12-24T00:36:14;12.20;99.90
52273;DHT22;38227;50.942;4.016;2022-12-24T00:38:45;12.20;99.90
52273;DHT22;38227;50.942;4.016;2022-12-24T00:41:15;12.20;99.90
52273;DHT22;38227;50.942;4.016;2022-12-24T00:43:58;12.30;99.90
52273;DHT22;38227;50.942;4.016;2022-12-24T00:46:30;12.20;99.90
52273;DHT22;38227;50.942;4.016;2022-12-24T00:49:00;12.20;99.90
52273;DHT22;38227;50.942;4.016;2022-12-24T00:51:28;12.10;99.90
52273;DHT22;38227;50.942;4.016;2022-12-24T00:53:59;12.00;99.90
52273;DHT22;38227;50.942;4.016;2022-12-24T00:56:29;12.00;99.90
52273;DHT22;38227;50.942;4.016;2022-12-24T00:58:57;11.80;99.90
52273;DHT22;38227;50.942;4.016;2022-12-24T01:01:27;11.80;99.90
52273;DHT22;38227;50.942;4.016;2022-12-24T01:03:55;11.80;99.90
52273;DHT22;38227;50.942;4.016;2022-12-24T01:06:54;11.70;99.90
52273;DHT22;38227;50.942;4.016;2022-12-24T01:09:23;11.70;99.90
52273;DHT22;38227;50.942;4.016;2022-12-24T01:12:02;11.60;99.90
52273;DHT22;38227;50.942;4.016;2022-12-24T01:14:32;11.50;99.90
52273;DHT22;38227;50.942;4.016;2022-12-24T01:17:03;11.70;99.90
52273;DHT22;38227;50.942;4.016;2022-12-24T01:19:33;11.70;99.90
52273;DHT22;38227;50.942;4.016;2022-12-24T01:22:05;11.70;99.90
52273;DHT22;38227;50.942;4.016;2022-12-24T01:24:35;11.80;99.90
52273;DHT22;38227;50.942;4.016;2022-12-24T01:27:03;11.80;99.90
52273;DHT22;38227;50.942;4.016;2022-12-24T01:29:32;11.80;99.90
52273;DHT22;38227;50.942;4.016;2022-12-24T01:32:01;11.80;99.90
52273;DHT22;38227;50.942;4.016;2022-12-24T01:34:30;11.80;99.90
52273;DHT22;38227;50.942;4.016;2022-12-24T01:37:01;11.80;99.90
52273;DHT22;38227;50.942;4.016;2022-12-24T01:39:31;11.90;99.90
52273;DHT22;38227;50.942;4.016;2022-12-24T01:42:10;11.90;99.90
52273;DHT22;38227;50.942;4.016;2022-12-24T01:48:04;12.00;99.90
52273;DHT22;38227;50.942;4.016;2022-12-24T01:50:42;11.90;99.90
52273;DHT22;38227;50.942;4.016;2022-12-24T01:53:15;11.90;99.90
52273;DHT22;38227;50.942;4.016;2022-12-24T01:55:53;11.80;99.90
52273;DHT22;38227;50.942;4.016;2022-12-24T01:58:25;11.90;99.90
52273;DHT22;38227;50.942;4.016;2022-12-24T02:00:57;11.80;99.90
52273;DHT22;38227;50.942;4.016;2022-12-24T02:03:29;11.80;99.90
52273;DHT22;38227;50.942;4.016;2022-12-24T02:06:00;11.70;99.90
52273;DHT22;38227;50.942;4.016;2022-12-24T02:08:35;11.70;99.90
52273;DHT22;38227;50.942;4.016;2022-12-24T02:11:16;11.70;99.90
52273;DHT22;38227;50.942;4.016;2022-12-24T02:13:57;11.60;99.90
52273;DHT22;38227;50.942;4.016;2022-12-24T02:24:12;11.70;99.90
52273;DHT22;38227;50.942;4.016;2022-12-24T02:27:16;11.70;99.90
52273;DHT22;38227;50.942;4.016;2022-12-24T02:33:42;11.80;99.90
52273;DHT22;38227;50.942;4.016;2022-12-24T02:36:42;11.80;99.90
52273;DHT22;38227;50.942;4.016;2022-12-24T02:39:26;11.70;99.90
52273;DHT22;38227;50.942;4.016;2022-12-24T02:42:05;11.70;99.90
52273;DHT22;38227;50.942;4.016;2022-12-24T02:44:49;11.70;99.90
52273;DHT22;38227;50.942;4.016;2022-12-24T02:47:28;11.80;99.90
52273;DHT22;38227;50.942;4.016;2022-12-24T02:50:10;11.70;99.90
52273;DHT22;38227;50.942;4.016;2022-12-24T02:52:48;11.80;99.90
52273;DHT22;38227;50.942;4.016;2022-12-24T03:08:11;11.60;99.90
52273;DHT22;38227;50.942;4.016;2022-12-24T03:11:03;11.60;99.90
52273;DHT22;38227;50.942;4.016;2022-12-24T03:13:35;11.70;99.90
52273;DHT22;38227;50.942;4.016;2022-12-24T03:16:06;11.60;99.90
52273;DHT22;38227;50.942;4.016;2022-12-24T03:18:38;11.70;99.90
52273;DHT22;38227;50.942;4.016;2022-12-24T03:21:32;11.70;99.90
52273;DHT22;38227;50.942;4.016;2022-12-24T03:24:01;11.70;99.90
52273;DHT22;38227;50.942;4.016;2022-12-24T03:26:31;11.80;99.90
52273;DHT22;38227;50.942;4.016;2022-12-24T03:29:06;11.80;99.90
52273;DHT22;38227;50.942;4.016;2022-12-24T03:31:47;11.70;99.90
52273;DHT22;38227;50.942;4.016;2022-12-24T03:34:22;11.70;99.90
52273;DHT22;38227;50.942;4.016;2022-12-24T03:36:59;11.50;99.90
52273;DHT22;38227;50.942;4.016;2022-12-24T03:39:33;11.50;99.90
52273;DHT22;38227;50.942;4.016;2022-12-24T03:42:04;11.40;99.90
52273;DHT22;38227;50.942;4.016;2022-12-24T03:44:42;11.30;99.90
52273;DHT22;38227;50.942;4.016;2022-12-24T03:47:16;11.30;99.90
52273;DHT22;38227;50.942;4.016;2022-12-24T03:49:54;11.30;99.90
52273;DHT22;38227;50.942;4.016;2022-12-24T03:52:35;11.30;99.90
52273;DHT22;38227;50.942;4.016;2022-12-24T03:55:16;11.30;99.90
52273;DHT22;38227;50.942;4.016;2022-12-24T03:58:04;11.30;99.90
52273;DHT22;38227;50.942;4.016;2022-12-24T04:00:35;11.30;99.90
52273;DHT22;38227;50.942;4.016;2022-12-24T04:03:16;11.30;99.90
52273;DHT22;38227;50.942;4.016;2022-12-24T04:06:13;11.30;99.90
52273;DHT22;38227;50.942;4.016;2022-12-24T04:08:46;11.40;99.90
52273;DHT22;38227;50.942;4.016;2022-12-24T04:11:16;11.40;99.90
52273;DHT22;38227;50.942;4.016;2022-12-24T04:13:48;11.50;99.90
52273;DHT22;38227;50.942;4.016;2022-12-24T04:16:19;11.50;99.90
52273;DHT22;38227;50.942;4.016;2022-12-24T04:18:48;11.40;99.90
52273;DHT22;38227;50.942;4.016;2022-12-24T04:21:27;11.40;99.90
52273;DHT22;38227;50.942;4.016;2022-12-24T04:23:56;11.40;99.90
52273;DHT22;38227;50.942;4.016;2022-12-24T04:26:34;11.30;99.90
52273;DHT22;38227;50.942;4.016;2022-12-24T04:29:03;11.30;99.90
52273;DHT22;38227;50.942;4.016;2022-12-24T04:31:35;11.20;99.90
52273;DHT22;38227;50.942;4.016;2022-12-24T04:34:04;11.20;99.90
52273;DHT22;38227;50.942;4.016;2022-12-24T04:36:36;11.20;99.90
52273;DHT22;38227;50.942;4.016;2022-12-24T04:39:04;11.20;99.90
52273;DHT22;38227;50.942;4.016;2022-12-24T04:41:42;11.20;99.90
52273;DHT22;38227;50.942;4.016;2022-12-24T04:44:11;11.20;99.90
52273;DHT22;38227;50.942;4.016;2022-12-24T04:46:42;11.20;99.90
52273;DHT22;38227;50.942;4.016;2022-12-24T04:49:11;11.20;99.90
52273;DHT22;38227;50.942;4.016;2022-12-24T04:51:43;11.20;99.90
52273;DHT22;38227;50.942;4.016;2022-12-24T04:54:13;11.10;99.90
52273;DHT22;38227;50.942;4.016;2022-12-24T04:56:51;11.10;99.90
52273;DHT22;38227;50.942;4.016;2022-12-24T04:59:30;11.10;99.90
52273;DHT22;38227;50.942;4.016;2022-12-24T05:02:02;11.10;99.90
52273;DHT22;38227;50.942;4.016;2022-12-24T05:04:31;11.10;99.90
52273;DHT22;38227;50.942;4.016;2022-12-24T05:07:08;11.10;99.90
52273;DHT22;38227;50.942;4.016;2022-12-24T05:09:41;11.10;99.90
52273;DHT22;38227;50.942;4.016;2022-12-24T05:12:16;11.00;99.90
52273;DHT22;38227;50.942;4.016;2022-12-24T05:14:47;11.10;99.90
52273;DHT22;38227;50.942;4.016;2022-12-24T05:17:28;11.10;99.90
52273;DHT22;38227;50.942;4.016;2022-12-24T05:20:07;11.20;99.90
52273;DHT22;38227;50.942;4.016;2022-12-24T05:22:42;11.20;99.90
52273;DHT22;38227;50.942;4.016;2022-12-24T05:25:35;11.20;99.90
52273;DHT22;38227;50.942;4.016;2022-12-24T05:28:23;11.30;99.90
52273;DHT22;38227;50.942;4.016;2022-12-24T05:30:55;11.30;99.90
52273;DHT22;38227;50.942;4.016;2022-12-24T05:33:43;11.40;99.90
52273;DHT22;38227;50.942;4.016;2022-12-24T05:36:14;11.40;99.90
52273;DHT22;38227;50.942;4.016;2022-12-24T05:38:50;11.40;99.90
52273;DHT22;38227;50.942;4.016;2022-12-24T05:41:23;11.40;99.90
52273;DHT22;38227;50.942;4.016;2022-12-24T05:43:59;11.30;99.90
52273;DHT22;38227;50.942;4.016;2022-12-24T05:46:34;11.20;99.90
52273;DHT22;38227;50.942;4.016;2022-12-24T05:49:12;11.10;99.90
52273;DHT22;38227;50.942;4.016;2022-12-24T05:51:48;11.00;99.90
52273;DHT22;38227;50.942;4.016;2022-12-24T05:54:25;11.00;99.90
52273;DHT22;38227;50.942;4.016;2022-12-24T05:57:00;11.10;99.90
52273;DHT22;38227;50.942;4.016;2022-12-24T05:59:38;11.10;99.90
52273;DHT22;38227;50.942;4.016;2022-12-24T06:02:18;11.10;99.90
52273;DHT22;38227;50.942;4.016;2022-12-24T06:04:50;11.00;99.90
52273;DHT22;38227;50.942;4.016;2022-12-24T06:07:21;10.90;99.90
52273;DHT22;38227;50.942;4.016;2022-12-24T06:09:57;11.00;99.90
52273;DHT22;38227;50.942;4.016;2022-12-24T06:12:27;11.00;99.90
52273;DHT22;38227;50.942;4.016;2022-12-24T06:15:07;11.00;99.90
52273;DHT22;38227;50.942;4.016;2022-12-24T06:17:40;11.00;99.90
52273;DHT22;38227;50.942;4.016;2022-12-24T06:20:15;11.00;99.90
52273;DHT22;38227;50.942;4.016;2022-12-24T06:22:52;11.00;99.90
52273;DHT22;38227;50.942;4.016;2022-12-24T06:25:34;11.00;99.90
52273;DHT22;38227;50.942;4.016;2022-12-24T06:28:05;11.00;99.90
52273;DHT22;38227;50.942;4.016;2022-12-24T06:30:46;11.00;99.90
52273;DHT22;38227;50.942;4.016;2022-12-24T06:33:17;11.10;99.90
52273;DHT22;38227;50.942;4.016;2022-12-24T06:35:59;11.00;99.90
52273;DHT22;38227;50.942;4.016;2022-12-24T06:38:31;11.10;99.90
52273;DHT22;38227;50.942;4.016;2022-12-24T06:41:08;11.10;99.90
52273;DHT22;38227;50.942;4.016;2022-12-24T06:43:46;11.10;99.90
52273;DHT22;38227;50.942;4.016;2022-12-24T06:46:35;11.10;99.90
52273;DHT22;38227;50.942;4.016;2022-12-24T06:49:06;11.10;99.90
52273;DHT22;38227;50.942;4.016;2022-12-24T06:51:42;11.10;99.90
52273;DHT22;38227;50.942;4.016;2022-12-24T06:54:20;11.10;99.90
52273;DHT22;38227;50.942;4.016;2022-12-24T06:56:50;11.10;99.90
52273;DHT22;38227;50.942;4.016;2022-12-24T06:59:25;11.20;99.90
52273;DHT22;38227;50.942;4.016;2022-12-24T07:02:07;11.10;99.90
52273;DHT22;38227;50.942;4.016;2022-12-24T07:04:40;11.20;99.90
52273;DHT22;38227;50.942;4.016;2022-12-24T07:07:21;11.20;99.90
52273;DHT22;38227;50.942;4.016;2022-12-24T07:09:57;11.20;99.90
52273;DHT22;38227;50.942;4.016;2022-12-24T07:12:28;11.10;99.90
52273;DHT22;38227;50.942;4.016;2022-12-24T07:15:04;11.20;99.90
52273;DHT22;38227;50.942;4.016;2022-12-24T07:17:34;11.10;99.90
52273;DHT22;38227;50.942;4.016;2022-12-24T07:20:06;11.20;99.90
52273;DHT22;38227;50.942;4.016;2022-12-24T07:22:39;11.20;99.90
52273;DHT22;38227;50.942;4.016;2022-12-24T07:25:11;11.20;99.90
52273;DHT22;38227;50.942;4.016;2022-12-24T07:27:42;11.20;99.90
52273;DHT22;38227;50.942;4.016;2022-12-24T07:30:24;11.30;99.90
52273;DHT22;38227;50.942;4.016;2022-12-24T07:32:54;11.20;99.90
52273;DHT22;38227;50.942;4.016;2022-12-24T07:35:26;11.10;99.90
52273;DHT22;38227;50.942;4.016;2022-12-24T07:38:07;11.20;99.90
52273;DHT22;38227;50.942;4.016;2022-12-24T07:40:37;11.20;99.90
52273;DHT22;38227;50.942;4.016;2022-12-24T07:43:25;11.10;99.90
52273;DHT22;38227;50.942;4.016;2022-12-24T07:45:57;11.10;99.90
52273;DHT22;38227;50.942;4.016;2022-12-24T07:48:38;11.00;99.90
52273;DHT22;38227;50.942;4.016;2022-12-24T07:51:14;11.00;99.90
52273;DHT22;38227;50.942;4.016;2022-12-24T07:53:49;11.00;99.90
52273;DHT22;38227;50.942;4.016;2022-12-24T07:56:20;11.00;99.90
52273;DHT22;38227;50.942;4.016;2022-12-24T07:59:01;11.00;99.90
52273;DHT22;38227;50.942;4.016;2022-12-24T08:01:33;11.10;99.90
52273;DHT22;38227;50.942;4.016;2022-12-24T08:04:11;11.10;99.90
52273;DHT22;38227;50.942;4.016;2022-12-24T08:06:45;11.00;99.90
52273;DHT22;38227;50.942;4.016;2022-12-24T08:09:16;11.10;99.90
52273;DHT22;38227;50.942;4.016;2022-12-24T08:11:55;11.00;99.90
52273;DHT22;38227;50.942;4.016;2022-12-24T08:14:27;11.10;99.90
52273;DHT22;38227;50.942;4.016;2022-12-24T08:17:07;11.10;99.90
52273;DHT22;38227;50.942;4.016;2022-12-24T08:19:48;11.10;99.90
52273;DHT22;38227;50.942;4.016;2022-12-24T08:22:25;11.10;99.90
52273;DHT22;38227;50.942;4.016;2022-12-24T08:25:07;11.00;99.90
52273;DHT22;38227;50.942;4.016;2022-12-24T08:27:38;11.20;99.90
52273;DHT22;38227;50.942;4.016;2022-12-24T08:30:15;11.30;99.90
52273;DHT22;38227;50.942;4.016;2022-12-24T08:32:48;11.30;99.90
52273;DHT22;38227;50.942;4.016;2022-12-24T08:35:19;11.30;99.90
52273;DHT22;38227;50.942;4.016;2022-12-24T08:38:00;11.30;99.90
52273;DHT22;38227;50.942;4.016;2022-12-24T08:40:38;11.30;99.90
52273;DHT22;38227;50.942;4.016;2022-12-24T08:43:18;11.30;99.90
52273;DHT22;38227;50.942;4.016;2022-12-24T08:45:49;11.40;99.90
52273;DHT22;38227;50.942;4.016;2022-12-24T08:48:31;11.30;99.90
52273;DHT22;38227;50.942;4.016;2022-12-24T08:51:07;11.40;99.90
52273;DHT22;38227;50.942;4.016;2022-12-24T08:53:44;11.40;99.90
52273;DHT22;38227;50.942;4.016;2022-12-24T08:56:14;11.50;99.90
52273;DHT22;38227;50.942;4.016;2022-12-24T08:58:50;11.60;99.90
52273;DHT22;38227;50.942;4.016;2022-12-24T09:01:27;11.70;99.90
52273;DHT22;38227;50.942;4.016;2022-12-24T09:04:00;11.70;99.90
52273;DHT22;38227;50.942;4.016;2022-12-24T09:06:28;11.80;99.90
52273;DHT22;38227;50.942;4.016;2022-12-24T09:08:58;11.80;99.90
52273;DHT22;38227;50.942;4.016;2022-12-24T09:11:26;11.90;99.90
52273;DHT22;38227;50.942;4.016;2022-12-24T09:13:58;12.00;99.90
52273;DHT22;38227;50.942;4.016;2022-12-24T09:16:26;12.00;99.90
52273;DHT22;38227;50.942;4.016;2022-12-24T09:18:56;11.90;99.90
52273;DHT22;38227;50.942;4.016;2022-12-24T09:21:24;12.00;99.90
52273;DHT22;38227;50.942;4.016;2022-12-24T09:23:56;11.90;99.90
52273;DHT22;38227;50.942;4.016;2022-12-24T09:26:26;11.90;99.90
52273;DHT22;38227;50.942;4.016;2022-12-24T09:28:57;11.90;99.90
52273;DHT22;38227;50.942;4.016;2022-12-24T09:31:32;11.90;99.90
52273;DHT22;38227;50.942;4.016;2022-12-24T09:34:00;11.80;99.90
52273;DHT22;38227;50.942;4.016;2022-12-24T09:36:27;11.70;99.90
52273;DHT22;38227;50.942;4.016;2022-12-24T09:39:00;11.70;99.90
52273;DHT22;38227;50.942;4.016;2022-12-24T09:42:01;11.70;99.90
52273;DHT22;38227;50.942;4.016;2022-12-24T09:45:15;11.80;99.90
52273;DHT22;38227;50.942;4.016;2022-12-24T09:48:08;11.70;99.90
52273;DHT22;38227;50.942;4.016;2022-12-24T09:50:49;11.70;99.90
52273;DHT22;38227;50.942;4.016;2022-12-24T09:56:27;11.90;99.90
52273;DHT22;38227;50.942;4.016;2022-12-24T09:59:03;12.00;99.90
52273;DHT22;38227;50.942;4.016;2022-12-24T10:01:33;12.00;99.90
52273;DHT22;38227;50.942;4.016;2022-12-24T10:04:14;12.00;99.90
52273;DHT22;38227;50.942;4.016;2022-12-24T10:10:39;12.00;99.90
52273;DHT22;38227;50.942;4.016;2022-12-24T10:13:42;12.00;99.90
52273;DHT22;38227;50.942;4.016;2022-12-24T10:16:33;12.10;99.90
52273;DHT22;38227;50.942;4.016;2022-12-24T10:19:27;12.20;99.90
52273;DHT22;38227;50.942;4.016;2022-12-24T10:22:47;12.20;99.90
52273;DHT22;38227;50.942;4.016;2022-12-24T10:28:21;12.40;99.90
52273;DHT22;38227;50.942;4.016;2022-12-24T10:31:00;12.50;99.90
52273;DHT22;38227;50.942;4.016;2022-12-24T10:33:41;12.60;99.90
52273;DHT22;38227;50.942;4.016;2022-12-24T10:36:17;12.60;99.90
52273;DHT22;38227;50.942;4.016;2022-12-24T10:38:59;12.60;99.90
52273;DHT22;38227;50.942;4.016;2022-12-24T10:41:27;12.70;99.90
52273;DHT22;38227;50.942;4.016;2022-12-24T10:44:00;12.60;99.90
52273;DHT22;38227;50.942;4.016;2022-12-24T10:46:37;12.70;99.90
52273;DHT22;38227;50.942;4.016;2022-12-24T10:49:18;12.70;99.90
52273;DHT22;38227;50.942;4.016;2022-12-24T10:52:14;12.60;99.90
52273;DHT22;38227;50.942;4.016;2022-12-24T10:58:08;12.60;99.90
52273;DHT22;38227;50.942;4.016;2022-12-24T11:00:50;12.60;99.90
52273;DHT22;38227;50.942;4.016;2022-12-24T11:03:35;12.60;99.90
52273;DHT22;38227;50.942;4.016;2022-12-24T11:06:24;12.60;99.90
52273;DHT22;38227;50.942;4.016;2022-12-24T11:08:52;12.50;99.90
52273;DHT22;38227;50.942;4.016;2022-12-24T11:11:20;12.50;99.90
52273;DHT22;38227;50.942;4.016;2022-12-24T11:14:13;12.40;99.90
52273;DHT22;38227;50.942;4.016;2022-12-24T11:16:49;12.40;99.90
52273;DHT22;38227;50.942;4.016;2022-12-24T11:19:25;12.40;99.90
52273;DHT22;38227;50.942;4.016;2022-12-24T11:22:02;12.40;99.90
52273;DHT22;38227;50.942;4.016;2022-12-24T11:24:37;12.50;99.90
52273;DHT22;38227;50.942;4.016;2022-12-24T11:30:30;12.60;99.90
52273;DHT22;38227;50.942;4.016;2022-12-24T11:33:21;12.60;99.90
52273;DHT22;38227;50.942;4.016;2022-12-24T11:35:55;12.80;99.90
52273;DHT22;38227;50.942;4.016;2022-12-24T11:38:28;12.80;99.90
52273;DHT22;38227;50.942;4.016;2022-12-24T11:41:02;12.80;99.90
52273;DHT22;38227;50.942;4.016;2022-12-24T11:43:49;12.80;99.90
52273;DHT22;38227;50.942;4.016;2022-12-24T11:49:31;12.80;99.90
52273;DHT22;38227;50.942;4.016;2022-12-24T11:52:20;12.90;99.90
52273;DHT22;38227;50.942;4.016;2022-12-24T11:55:20;13.10;99.90
52273;DHT22;38227;50.942;4.016;2022-12-24T12:00:40;13.20;99.90
52273;DHT22;38227;50.942;4.016;2022-12-24T12:03:28;13.10;99.90
52273;DHT22;38227;50.942;4.016;2022-12-24T12:05:58;13.00;99.90
52273;DHT22;38227;50.942;4.016;2022-12-24T12:08:29;13.00;99.90
52273;DHT22;38227;50.942;4.016;2022-12-24T12:10:58;13.00;99.90
52273;DHT22;38227;50.942;4.016;2022-12-24T12:13:30;13.10;99.90
52273;DHT22;38227;50.942;4.016;2022-12-24T12:19:30;13.30;99.90
52273;DHT22;38227;50.942;4.016;2022-12-24T12:22:03;13.50;99.90
52273;DHT22;38227;50.942;4.016;2022-12-24T12:24:36;13.60;99.90
52273;DHT22;38227;50.942;4.016;2022-12-24T12:27:23;13.60;99.90
52273;DHT22;38227;50.942;4.016;2022-12-24T12:30:02;13.80;99.90
52273;DHT22;38227;50.942;4.016;2022-12-24T12:33:10;13.70;99.90
52273;DHT22;38227;50.942;4.016;2022-12-24T12:35:42;13.90;99.90
52273;DHT22;38227;50.942;4.016;2022-12-24T12:38:20;13.80;99.90
52273;DHT22;38227;50.942;4.016;2022-12-24T12:41:37;13.90;99.90
52273;DHT22;38227;50.942;4.016;2022-12-24T12:48:25;13.80;99.90
52273;DHT22;38227;50.942;4.016;2022-12-24T12:50:39;13.90;99.90
52273;DHT22;38227;50.942;4.016;2022-12-24T12:56:32;14.10;99.90
52273;DHT22;38227;50.942;4.016;2022-12-24T12:59:40;14.10;99.90
52273;DHT22;38227;50.942;4.016;2022-12-24T13:18:41;14.00;99.90
52273;DHT22;38227;50.942;4.016;2022-12-24T13:21:19;13.80;99.90
52273;DHT22;38227;50.942;4.016;2022-12-24T13:23:49;13.80;99.90
52273;DHT22;38227;50.942;4.016;2022-12-24T13:26:27;13.80;99.90
52273;DHT22;38227;50.942;4.016;2022-12-24T13:33:01;13.70;99.90
52273;DHT22;38227;50.942;4.016;2022-12-24T13:35:32;13.70;99.90
52273;DHT22;38227;50.942;4.016;2022-12-24T13:38:40;13.80;99.90
52273;DHT22;38227;50.942;4.016;2022-12-24T13:44:21;13.70;99.90
52273;DHT22;38227;50.942;4.016;2022-12-24T13:47:00;13.70;99.90
52273;DHT22;38227;50.942;4.016;2022-12-24T13:49:52;13.80;99.90
52273;DHT22;38227;50.942;4.016;2022-12-24T13:52:25;13.70;99.90
52273;DHT22;38227;50.942;4.016;2022-12-24T13:55:14;13.50;99.90
52273;DHT22;38227;50.942;4.016;2022-12-24T13:57:59;13.20;99.90
52273;DHT22;38227;50.942;4.016;2022-12-24T14:00:29;13.10;99.90
52273;DHT22;38227;50.942;4.016;2022-12-24T14:06:41;13.00;99.90
52273;DHT22;38227;50.942;4.016;2022-12-24T14:09:16;13.00;99.90
52273;DHT22;38227;50.942;4.016;2022-12-24T14:12:30;12.80;99.90
52273;DHT22;38227;50.942;4.016;2022-12-24T14:18:17;12.60;99.90
52273;DHT22;38227;50.942;4.016;2022-12-24T14:20:53;12.60;99.90
52273;DHT22;38227;50.942;4.016;2022-12-24T14:23:41;12.60;99.90
52273;DHT22;38227;50.942;4.016;2022-12-24T14:26:22;12.60;99.90
52273;DHT22;38227;50.942;4.016;2022-12-24T14:29:14;12.50;99.90
52273;DHT22;38227;50.942;4.016;2022-12-24T14:31:53;12.60;99.90
52273;DHT22;38227;50.942;4.016;2022-12-24T14:34:22;12.60;99.90
52273;DHT22;38227;50.942;4.016;2022-12-24T14:36:51;12.60;99.90
52273;DHT22;38227;50.942;4.016;2022-12-24T14:39:40;12.60;99.90
52273;DHT22;38227;50.942;4.016;2022-12-24T14:46:11;12.50;99.90
52273;DHT22;38227;50.942;4.016;2022-12-24T14:49:30;12.50;99.90
52273;DHT22;38227;50.942;4.016;2022-12-24T14:55:45;12.70;99.90
52273;DHT22;38227;50.942;4.016;2022-12-24T14:58:48;12.60;99.90
52273;DHT22;38227;50.942;4.016;2022-12-24T15:01:26;12.50;99.90
52273;DHT22;38227;50.942;4.016;2022-12-24T15:04:03;12.50;99.90
52273;DHT22;38227;50.942;4.016;2022-12-24T15:06:34;12.60;99.90
52273;DHT22;38227;50.942;4.016;2022-12-24T15:09:04;12.70;99.90
52273;DHT22;38227;50.942;4.016;2022-12-24T15:11:36;12.60;99.90
52273;DHT22;38227;50.942;4.016;2022-12-24T15:14:08;12.50;99.90
52273;DHT22;38227;50.942;4.016;2022-12-24T15:16:37;12.60;99.90
52273;DHT22;38227;50.942;4.016;2022-12-24T15:19:21;12.60;99.90
52273;DHT22;38227;50.942;4.016;2022-12-24T15:21:50;12.60;99.90
52273;DHT22;38227;50.942;4.016;2022-12-24T15:24:28;12.60;99.90
52273;DHT22;38227;50.942;4.016;2022-12-24T15:26:57;12.50;99.90
52273;DHT22;38227;50.942;4.016;2022-12-24T15:29:29;12.50;99.90
52273;DHT22;38227;50.942;4.016;2022-12-24T15:32:00;12.50;99.90
52273;DHT22;38227;50.942;4.016;2022-12-24T15:37:34;12.50;99.90
52273;DHT22;38227;50.942;4.016;2022-12-24T15:40:21;12.50;99.90
52273;DHT22;38227;50.942;4.016;2022-12-24T15:42:50;12.40;99.90
52273;DHT22;38227;50.942;4.016;2022-12-24T15:45:27;12.40;99.90
52273;DHT22;38227;50.942;4.016;2022-12-24T15:48:05;12.20;99.90
52273;DHT22;38227;50.942;4.016;2022-12-24T15:50:36;12.20;99.90
52273;DHT22;38227;50.942;4.016;2022-12-24T15:53:10;12.10;99.90
52273;DHT22;38227;50.942;4.016;2022-12-24T15:55:45;12.20;99.90
52273;DHT22;38227;50.942;4.016;2022-12-24T16:01:27;12.00;99.90
52273;DHT22;38227;50.942;4.016;2022-12-24T16:03:59;11.90;99.90
52273;DHT22;38227;50.942;4.016;2022-12-24T16:09:41;11.70;99.90
52273;DHT22;38227;50.942;4.016;2022-12-24T16:12:19;11.80;99.90
52273;DHT22;38227;50.942;4.016;2022-12-24T16:14:52;11.70;99.90
52273;DHT22;38227;50.942;4.016;2022-12-24T16:17:26;11.80;99.90
52273;DHT22;38227;50.942;4.016;2022-12-24T16:20:02;11.70;99.90
52273;DHT22;38227;50.942;4.016;2022-12-24T16:22:31;11.60;99.90
52273;DHT22;38227;50.942;4.016;2022-12-24T16:25:24;11.60;99.90
52273;DHT22;38227;50.942;4.016;2022-12-24T16:27:51;11.50;99.90
52273;DHT22;38227;50.942;4.016;2022-12-24T16:30:23;11.40;99.90
52273;DHT22;38227;50.942;4.016;2022-12-24T16:32:51;11.40;99.90
52273;DHT22;38227;50.942;4.016;2022-12-24T16:35:27;11.30;99.90
52273;DHT22;38227;50.942;4.016;2022-12-24T16:37:54;11.30;99.90
52273;DHT22;38227;50.942;4.016;2022-12-24T16:40:36;11.30;99.90
52273;DHT22;38227;50.942;4.016;2022-12-24T16:43:03;11.30;99.90
52273;DHT22;38227;50.942;4.016;2022-12-24T16:45:50;11.30;99.90
52273;DHT22;38227;50.942;4.016;2022-12-24T16:48:23;11.40;99.90
52273;DHT22;38227;50.942;4.016;2022-12-24T16:50:56;11.40;99.90
52273;DHT22;38227;50.942;4.016;2022-12-24T16:53:25;11.50;99.90
52273;DHT22;38227;50.942;4.016;2022-12-24T16:55:56;11.40;99.90
52273;DHT22;38227;50.942;4.016;2022-12-24T16:58:27;11.40;99.90
52273;DHT22;38227;50.942;4.016;2022-12-24T17:01:04;11.40;99.90
52273;DHT22;38227;50.942;4.016;2022-12-24T17:03:32;11.50;99.90
52273;DHT22;38227;50.942;4.016;2022-12-24T17:06:03;11.60;99.90
52273;DHT22;38227;50.942;4.016;2022-12-24T17:08:32;11.40;99.90
52273;DHT22;38227;50.942;4.016;2022-12-24T17:11:10;11.40;99.90
52273;DHT22;38227;50.942;4.016;2022-12-24T17:13:39;11.50;99.90
52273;DHT22;38227;50.942;4.016;2022-12-24T17:16:06;11.50;99.90
52273;DHT22;38227;50.942;4.016;2022-12-24T17:18:39;11.50;99.90
52273;DHT22;38227;50.942;4.016;2022-12-24T17:21:08;11.40;99.90
52273;DHT22;38227;50.942;4.016;2022-12-24T17:23:40;11.40;99.90
52273;DHT22;38227;50.942;4.016;2022-12-24T17:26:09;11.30;99.90
52273;DHT22;38227;50.942;4.016;2022-12-24T17:28:37;11.40;99.90
52273;DHT22;38227;50.942;4.016;2022-12-24T17:31:12;11.30;99.90
52273;DHT22;38227;50.942;4.016;2022-12-24T17:33:41;11.40;99.90
52273;DHT22;38227;50.942;4.016;2022-12-24T17:36:10;11.40;99.90
52273;DHT22;38227;50.942;4.016;2022-12-24T17:38:38;11.40;99.90
52273;DHT22;38227;50.942;4.016;2022-12-24T17:41:10;11.40;99.90
52273;DHT22;38227;50.942;4.016;2022-12-24T17:43:38;11.40;99.90
52273;DHT22;38227;50.942;4.016;2022-12-24T17:46:11;11.30;99.90
52273;DHT22;38227;50.942;4.016;2022-12-24T17:48:42;11.20;99.90
52273;DHT22;38227;50.942;4.016;2022-12-24T17:51:17;11.20;99.90
52273;DHT22;38227;50.942;4.016;2022-12-24T17:53:47;11.00;99.90
52273;DHT22;38227;50.942;4.016;2022-12-24T17:56:26;10.90;99.90
52273;DHT22;38227;50.942;4.016;2022-12-24T17:58:56;10.90;99.90
52273;DHT22;38227;50.942;4.016;2022-12-24T18:01:26;10.90;99.90
52273;DHT22;38227;50.942;4.016;2022-12-24T18:04:00;10.80;99.90
52273;DHT22;38227;50.942;4.016;2022-12-24T18:06:33;10.90;99.90
52273;DHT22;38227;50.942;4.016;2022-12-24T18:09:01;10.90;99.90
52273;DHT22;38227;50.942;4.016;2022-12-24T18:11:33;10.90;99.90
52273;DHT22;38227;50.942;4.016;2022-12-24T18:14:04;10.80;99.90